sensor_id;sensor_type;location;lat;lon;timestamp;P1;durP1;ratioP1;P2;durP2;ratioP2
14732;SDS011;7457;50.960;6.830;2023-04-15T00:00:15;6.85;;;5.03;;
14732;SDS011;7457;50.960;6.830;2023-04-15T00:02:41;9.15;;;5.28;;
14732;SDS011;7457;50.960;6.830;2023-04-15T00:05:08;7.88;;;4.97;;
14732;SDS011;7457;50.960;6.830;2023-04-15T00:07:34;6.80;;;5.25;;
14732;SDS011;7457;50.960;6.830;2023-04-15T00:10:00;6.65;;;5.18;;
14732;SDS011;7457;50.960;6.830;2023-04-15T00:12:26;8.90;;;4.80;;
14732;SDS011;7457;50.960;6.830;2023-04-15T00:14:52;5.88;;;4.38;;
14732;SDS011;7457;50.960;6.830;2023-04-15T00:17:18;5.18;;;4.20;;
14732;SDS011;7457;50.960;6.830;2023-04-15T00:19:44;6.35;;;4.00;;
14732;SDS011;7457;50.960;6.830;2023-04-15T00:22:10;8.95;;;4.68;;
14732;SDS011;7457;50.960;6.830;2023-04-15T00:24:36;8.43;;;6.72;;
14732;SDS011;7457;50.960;6.830;2023-04-15T00:27:02;9.05;;;4.75;;
14732;SDS011;7457;50.960;6.830;2023-04-15T00:29:28;8.57;;;5.10;;
14732;SDS011;7457;50.960;6.830;2023-04-15T00:31:54;5.18;;;4.55;;
14732;SDS011;7457;50.960;6.830;2023-04-15T00:34:21;8.13;;;4.60;;
14732;SDS011;7457;50.960;6.830;2023-04-15T00:36:47;11.52;;;6.95;;
14732;SDS011;7457;50.960;6.830;2023-04-15T00:39:13;14.48;;;7.18;;
14732;SDS011;7457;50.960;6.830;2023-04-15T00:41:40;9.27;;;5.38;;
14732;SDS011;7457;50.960;6.830;2023-04-15T00:44:06;5.30;;;4.50;;
14732;SDS011;7457;50.960;6.830;2023-04-15T00:46:32;5.53;;;4.30;;
14732;SDS011;7457;50.960;6.830;2023-04-15T00:49:01;4.97;;;4.53;;
14732;SDS011;7457;50.960;6.830;2023-04-15T00:51:28;6.80;;;4.53;;
14732;SDS011;7457;50.960;6.830;2023-04-15T00:53:55;10.40;;;5.18;;
14732;SDS011;7457;50.960;6.830;2023-04-15T00:56:21;5.22;;;4.45;;
14732;SDS011;7457;50.960;6.830;2023-04-15T00:58:48;5.85;;;4.80;;
14732;SDS011;7457;50.960;6.830;2023-04-15T01:01:15;6.60;;;5.00;;
14732;SDS011;7457;50.960;6.830;2023-04-15T01:03:45;5.18;;;4.65;;
14732;SDS011;7457;50.960;6.830;2023-04-15T01:06:11;8.70;;;5.20;;
14732;SDS011;7457;50.960;6.830;2023-04-15T01:08:38;6.03;;;5.07;;
14732;SDS011;7457;50.960;6.830;2023-04-15T01:11:04;7.68;;;5.38;;
14732;SDS011;7457;50.960;6.830;2023-04-15T01:13:31;8.40;;;5.10;;
14732;SDS011;7457;50.960;6.830;2023-04-15T01:15:58;9.15;;;5.72;;
14732;SDS011;7457;50.960;6.830;2023-04-15T01:18:25;9.00;;;5.50;;
14732;SDS011;7457;50.960;6.830;2023-04-15T01:20:52;5.68;;;4.97;;
14732;SDS011;7457;50.960;6.830;2023-04-15T01:23:17;7.95;;;5.38;;
14732;SDS011;7457;50.960;6.830;2023-04-15T01:25:44;9.82;;;6.22;;
14732;SDS011;7457;50.960;6.830;2023-04-15T01:28:10;8.65;;;5.57;;
14732;SDS011;7457;50.960;6.830;2023-04-15T01:30:36;8.70;;;5.45;;
14732;SDS011;7457;50.960;6.830;2023-04-15T01:33:01;11.18;;;6.10;;
14732;SDS011;7457;50.960;6.830;2023-04-15T01:35:27;10.02;;;5.47;;
14732;SDS011;7457;50.960;6.830;2023-04-15T01:37:53;6.18;;;5.28;;
14732;SDS011;7457;50.960;6.830;2023-04-15T01:40:22;5.85;;;4.85;;
14732;SDS011;7457;50.960;6.830;2023-04-15T01:42:48;6.28;;;4.45;;
14732;SDS011;7457;50.960;6.830;2023-04-15T01:45:14;6.20;;;4.90;;
14732;SDS011;7457;50.960;6.830;2023-04-15T01:47:40;8.70;;;5.75;;
14732;SDS011;7457;50.960;6.830;2023-04-15T01:50:06;8.13;;;4.85;;
14732;SDS011;7457;50.960;6.830;2023-04-15T01:52:32;7.07;;;4.43;;
14732;SDS011;7457;50.960;6.830;2023-04-15T01:54:58;7.32;;;4.72;;
14732;SDS011;7457;50.960;6.830;2023-04-15T01:57:23;5.75;;;5.07;;
14732;SDS011;7457;50.960;6.830;2023-04-15T01:59:49;8.40;;;5.00;;
14732;SDS011;7457;50.960;6.830;2023-04-15T02:02:15;9.52;;;4.72;;
14732;SDS011;7457;50.960;6.830;2023-04-15T02:04:41;4.80;;;4.30;;
14732;SDS011;7457;50.960;6.830;2023-04-15T02:07:07;5.35;;;4.45;;
14732;SDS011;7457;50.960;6.830;2023-04-15T02:09:32;7.25;;;4.53;;
14732;SDS011;7457;50.960;6.830;2023-04-15T02:11:58;7.22;;;4.82;;
14732;SDS011;7457;50.960;6.830;2023-04-15T02:14:24;5.72;;;4.55;;
14732;SDS011;7457;50.960;6.830;2023-04-15T02:16:51;6.82;;;4.75;;
14732;SDS011;7457;50.960;6.830;2023-04-15T02:19:16;6.88;;;4.68;;
14732;SDS011;7457;50.960;6.830;2023-04-15T02:21:42;6.20;;;4.90;;
14732;SDS011;7457;50.960;6.830;2023-04-15T02:24:07;8.23;;;5.25;;
14732;SDS011;7457;50.960;6.830;2023-04-15T02:26:33;7.55;;;4.93;;
14732;SDS011;7457;50.960;6.830;2023-04-15T02:28:59;6.55;;;4.78;;
14732;SDS011;7457;50.960;6.830;2023-04-15T02:31:24;6.55;;;4.90;;
14732;SDS011;7457;50.960;6.830;2023-04-15T02:33:50;5.90;;;4.82;;
14732;SDS011;7457;50.960;6.830;2023-04-15T02:36:16;5.85;;;4.82;;
14732;SDS011;7457;50.960;6.830;2023-04-15T02:38:42;11.73;;;4.70;;
14732;SDS011;7457;50.960;6.830;2023-04-15T02:41:10;5.85;;;4.25;;
14732;SDS011;7457;50.960;6.830;2023-04-15T02:43:36;5.90;;;4.22;;
14732;SDS011;7457;50.960;6.830;2023-04-15T02:46:03;6.38;;;4.00;;
14732;SDS011;7457;50.960;6.830;2023-04-15T02:48:30;5.80;;;5.20;;
14732;SDS011;7457;50.960;6.830;2023-04-15T02:53:41;9.32;;;6.22;;
14732;SDS011;7457;50.960;6.830;2023-04-15T02:56:07;6.78;;;5.10;;
14732;SDS011;7457;50.960;6.830;2023-04-15T02:58:33;4.72;;;4.30;;
14732;SDS011;7457;50.960;6.830;2023-04-15T03:01:00;5.55;;;4.32;;
14732;SDS011;7457;50.960;6.830;2023-04-15T03:03:26;6.65;;;4.22;;
14732;SDS011;7457;50.960;6.830;2023-04-15T03:05:52;9.10;;;4.82;;
14732;SDS011;7457;50.960;6.830;2023-04-15T03:08:18;6.63;;;5.00;;
14732;SDS011;7457;50.960;6.830;2023-04-15T03:10:45;10.27;;;5.40;;
14732;SDS011;7457;50.960;6.830;2023-04-15T03:13:11;6.03;;;5.20;;
14732;SDS011;7457;50.960;6.830;2023-04-15T03:15:37;6.95;;;4.85;;
14732;SDS011;7457;50.960;6.830;2023-04-15T03:18:03;5.63;;;4.60;;
14732;SDS011;7457;50.960;6.830;2023-04-15T03:20:28;7.95;;;4.75;;
14732;SDS011;7457;50.960;6.830;2023-04-15T03:22:54;5.72;;;5.05;;
14732;SDS011;7457;50.960;6.830;2023-04-15T03:25:20;7.20;;;4.85;;
14732;SDS011;7457;50.960;6.830;2023-04-15T03:27:45;7.15;;;5.28;;
14732;SDS011;7457;50.960;6.830;2023-04-15T03:30:11;9.73;;;5.95;;
14732;SDS011;7457;50.960;6.830;2023-04-15T03:32:37;10.27;;;6.10;;
14732;SDS011;7457;50.960;6.830;2023-04-15T03:35:03;8.07;;;5.15;;
14732;SDS011;7457;50.960;6.830;2023-04-15T03:37:30;8.48;;;5.40;;
14732;SDS011;7457;50.960;6.830;2023-04-15T03:39:55;9.55;;;6.18;;
14732;SDS011;7457;50.960;6.830;2023-04-15T03:42:21;9.93;;;5.88;;
14732;SDS011;7457;50.960;6.830;2023-04-15T03:44:47;7.28;;;6.05;;
14732;SDS011;7457;50.960;6.830;2023-04-15T03:47:12;9.05;;;6.00;;
14732;SDS011;7457;50.960;6.830;2023-04-15T03:49:38;8.68;;;5.97;;
14732;SDS011;7457;50.960;6.830;2023-04-15T03:52:04;9.30;;;6.10;;
14732;SDS011;7457;50.960;6.830;2023-04-15T03:54:30;8.90;;;6.53;;
14732;SDS011;7457;50.960;6.830;2023-04-15T03:56:55;9.23;;;5.93;;
14732;SDS011;7457;50.960;6.830;2023-04-15T03:59:21;8.23;;;6.30;;
14732;SDS011;7457;50.960;6.830;2023-04-15T04:01:47;7.93;;;5.75;;
14732;SDS011;7457;50.960;6.830;2023-04-15T04:04:13;8.45;;;5.90;;
14732;SDS011;7457;50.960;6.830;2023-04-15T04:06:38;7.32;;;6.43;;
14732;SDS011;7457;50.960;6.830;2023-04-15T04:09:04;10.40;;;5.70;;
14732;SDS011;7457;50.960;6.830;2023-04-15T04:11:30;9.93;;;5.32;;
14732;SDS011;7457;50.960;6.830;2023-04-15T04:13:55;7.10;;;5.22;;
14732;SDS011;7457;50.960;6.830;2023-04-15T04:16:21;7.82;;;5.63;;
14732;SDS011;7457;50.960;6.830;2023-04-15T04:18:46;7.95;;;5.57;;
14732;SDS011;7457;50.960;6.830;2023-04-15T04:21:12;7.05;;;4.43;;
14732;SDS011;7457;50.960;6.830;2023-04-15T04:23:38;4.30;;;3.60;;
14732;SDS011;7457;50.960;6.830;2023-04-15T04:26:03;5.00;;;3.97;;
14732;SDS011;7457;50.960;6.830;2023-04-15T04:28:29;5.50;;;4.18;;
14732;SDS011;7457;50.960;6.830;2023-04-15T04:30:55;4.93;;;4.18;;
14732;SDS011;7457;50.960;6.830;2023-04-15T04:33:21;5.82;;;4.28;;
14732;SDS011;7457;50.960;6.830;2023-04-15T04:35:46;5.25;;;4.13;;
14732;SDS011;7457;50.960;6.830;2023-04-15T04:38:12;7.32;;;5.20;;
14732;SDS011;7457;50.960;6.830;2023-04-15T04:40:38;5.95;;;4.22;;
14732;SDS011;7457;50.960;6.830;2023-04-15T04:43:03;6.40;;;4.63;;
14732;SDS011;7457;50.960;6.830;2023-04-15T04:45:29;4.82;;;4.32;;
14732;SDS011;7457;50.960;6.830;2023-04-15T04:47:55;6.75;;;4.07;;
14732;SDS011;7457;50.960;6.830;2023-04-15T04:50:20;4.60;;;4.10;;
14732;SDS011;7457;50.960;6.830;2023-04-15T04:52:46;6.68;;;4.65;;
14732;SDS011;7457;50.960;6.830;2023-04-15T04:55:12;6.53;;;4.60;;
14732;SDS011;7457;50.960;6.830;2023-04-15T04:57:37;4.78;;;4.30;;
14732;SDS011;7457;50.960;6.830;2023-04-15T05:00:06;5.60;;;3.92;;
14732;SDS011;7457;50.960;6.830;2023-04-15T05:02:33;5.88;;;4.55;;
14732;SDS011;7457;50.960;6.830;2023-04-15T05:04:59;6.53;;;4.03;;
14732;SDS011;7457;50.960;6.830;2023-04-15T05:07:25;5.47;;;4.13;;
14732;SDS011;7457;50.960;6.830;2023-04-15T05:09:51;7.72;;;5.03;;
14732;SDS011;7457;50.960;6.830;2023-04-15T05:12:17;5.60;;;4.65;;
14732;SDS011;7457;50.960;6.830;2023-04-15T05:14:43;8.18;;;4.43;;
14732;SDS011;7457;50.960;6.830;2023-04-15T05:17:09;6.88;;;4.78;;
14732;SDS011;7457;50.960;6.830;2023-04-15T05:19:35;5.75;;;4.93;;
14732;SDS011;7457;50.960;6.830;2023-04-15T05:22:01;8.60;;;4.90;;
14732;SDS011;7457;50.960;6.830;2023-04-15T05:24:27;5.70;;;4.72;;
14732;SDS011;7457;50.960;6.830;2023-04-15T05:26:53;8.05;;;4.15;;
14732;SDS011;7457;50.960;6.830;2023-04-15T05:29:18;7.10;;;4.68;;
14732;SDS011;7457;50.960;6.830;2023-04-15T05:31:44;4.88;;;4.38;;
14732;SDS011;7457;50.960;6.830;2023-04-15T05:34:10;8.68;;;4.40;;
14732;SDS011;7457;50.960;6.830;2023-04-15T05:36:36;7.22;;;4.32;;
14732;SDS011;7457;50.960;6.830;2023-04-15T05:39:04;7.93;;;4.78;;
14732;SDS011;7457;50.960;6.830;2023-04-15T05:41:31;5.18;;;4.60;;
14732;SDS011;7457;50.960;6.830;2023-04-15T05:43:56;6.40;;;4.72;;
14732;SDS011;7457;50.960;6.830;2023-04-15T05:46:22;15.52;;;5.25;;
14732;SDS011;7457;50.960;6.830;2023-04-15T05:48:50;8.95;;;5.35;;
14732;SDS011;7457;50.960;6.830;2023-04-15T05:51:16;8.18;;;5.25;;
14732;SDS011;7457;50.960;6.830;2023-04-15T05:53:42;10.73;;;4.95;;
14732;SDS011;7457;50.960;6.830;2023-04-15T05:56:07;5.57;;;4.85;;
14732;SDS011;7457;50.960;6.830;2023-04-15T05:58:33;13.50;;;5.53;;
14732;SDS011;7457;50.960;6.830;2023-04-15T06:00:59;9.18;;;6.07;;
14732;SDS011;7457;50.960;6.830;2023-04-15T06:03:25;7.78;;;5.43;;
14732;SDS011;7457;50.960;6.830;2023-04-15T06:05:50;10.50;;;5.82;;
14732;SDS011;7457;50.960;6.830;2023-04-15T06:08:16;7.50;;;5.50;;
14732;SDS011;7457;50.960;6.830;2023-04-15T06:10:41;6.32;;;4.97;;
14732;SDS011;7457;50.960;6.830;2023-04-15T06:13:07;9.88;;;5.63;;
14732;SDS011;7457;50.960;6.830;2023-04-15T06:15:33;8.95;;;5.30;;
14732;SDS011;7457;50.960;6.830;2023-04-15T06:17:58;6.00;;;5.05;;
14732;SDS011;7457;50.960;6.830;2023-04-15T06:20:24;7.13;;;4.97;;
14732;SDS011;7457;50.960;6.830;2023-04-15T06:22:50;7.50;;;5.50;;
14732;SDS011;7457;50.960;6.830;2023-04-15T06:25:16;7.43;;;5.18;;
14732;SDS011;7457;50.960;6.830;2023-04-15T06:27:42;10.57;;;5.63;;
14732;SDS011;7457;50.960;6.830;2023-04-15T06:30:07;7.45;;;6.10;;
14732;SDS011;7457;50.960;6.830;2023-04-15T06:32:34;10.70;;;5.43;;
14732;SDS011;7457;50.960;6.830;2023-04-15T06:34:59;9.50;;;6.00;;
14732;SDS011;7457;50.960;6.830;2023-04-15T06:37:25;8.93;;;5.95;;
14732;SDS011;7457;50.960;6.830;2023-04-15T06:39:51;6.18;;;5.57;;
14732;SDS011;7457;50.960;6.830;2023-04-15T06:42:16;11.50;;;5.60;;
14732;SDS011;7457;50.960;6.830;2023-04-15T06:44:42;7.65;;;5.68;;
14732;SDS011;7457;50.960;6.830;2023-04-15T06:47:08;8.70;;;5.53;;
14732;SDS011;7457;50.960;6.830;2023-04-15T06:49:33;8.55;;;5.80;;
14732;SDS011;7457;50.960;6.830;2023-04-15T06:51:59;12.27;;;8.00;;
14732;SDS011;7457;50.960;6.830;2023-04-15T06:54:25;12.80;;;8.68;;
14732;SDS011;7457;50.960;6.830;2023-04-15T06:56:51;14.20;;;7.45;;
14732;SDS011;7457;50.960;6.830;2023-04-15T06:59:17;12.15;;;7.88;;
14732;SDS011;7457;50.960;6.830;2023-04-15T07:01:43;15.40;;;11.93;;
14732;SDS011;7457;50.960;6.830;2023-04-15T07:04:09;12.25;;;8.63;;
14732;SDS011;7457;50.960;6.830;2023-04-15T07:06:35;11.60;;;7.53;;
14732;SDS011;7457;50.960;6.830;2023-04-15T07:09:00;13.18;;;7.45;;
14732;SDS011;7457;50.960;6.830;2023-04-15T07:11:27;10.48;;;6.95;;
14732;SDS011;7457;50.960;6.830;2023-04-15T07:13:52;9.38;;;6.88;;
14732;SDS011;7457;50.960;6.830;2023-04-15T07:16:18;17.58;;;8.13;;
14732;SDS011;7457;50.960;6.830;2023-04-15T07:18:44;13.27;;;7.38;;
14732;SDS011;7457;50.960;6.830;2023-04-15T07:21:09;11.95;;;7.47;;
14732;SDS011;7457;50.960;6.830;2023-04-15T07:23:35;10.38;;;7.60;;
14732;SDS011;7457;50.960;6.830;2023-04-15T07:26:01;7.57;;;6.85;;
14732;SDS011;7457;50.960;6.830;2023-04-15T07:28:28;10.52;;;6.90;;
14732;SDS011;7457;50.960;6.830;2023-04-15T07:30:54;9.05;;;7.45;;
14732;SDS011;7457;50.960;6.830;2023-04-15T07:33:21;9.10;;;6.60;;
14732;SDS011;7457;50.960;6.830;2023-04-15T07:35:47;9.48;;;7.68;;
14732;SDS011;7457;50.960;6.830;2023-04-15T07:38:12;9.80;;;6.90;;
14732;SDS011;7457;50.960;6.830;2023-04-15T07:40:38;11.13;;;7.30;;
14732;SDS011;7457;50.960;6.830;2023-04-15T07:43:04;10.68;;;7.28;;
14732;SDS011;7457;50.960;6.830;2023-04-15T07:45:30;9.80;;;7.25;;
14732;SDS011;7457;50.960;6.830;2023-04-15T07:47:56;8.38;;;7.07;;
14732;SDS011;7457;50.960;6.830;2023-04-15T07:50:22;9.38;;;7.55;;
14732;SDS011;7457;50.960;6.830;2023-04-15T07:52:51;6.85;;;6.10;;
14732;SDS011;7457;50.960;6.830;2023-04-15T07:55:17;8.48;;;6.55;;
14732;SDS011;7457;50.960;6.830;2023-04-15T07:57:45;10.75;;;7.28;;
14732;SDS011;7457;50.960;6.830;2023-04-15T08:00:11;8.27;;;6.80;;
14732;SDS011;7457;50.960;6.830;2023-04-15T08:02:38;7.60;;;6.63;;
14732;SDS011;7457;50.960;6.830;2023-04-15T08:05:04;9.73;;;6.10;;
14732;SDS011;7457;50.960;6.830;2023-04-15T08:07:31;10.65;;;6.75;;
14732;SDS011;7457;50.960;6.830;2023-04-15T08:09:57;8.27;;;6.45;;
14732;SDS011;7457;50.960;6.830;2023-04-15T08:12:22;9.63;;;6.60;;
14732;SDS011;7457;50.960;6.830;2023-04-15T08:14:49;8.02;;;6.60;;
14732;SDS011;7457;50.960;6.830;2023-04-15T08:17:15;6.97;;;6.25;;
14732;SDS011;7457;50.960;6.830;2023-04-15T08:19:41;9.02;;;6.13;;
14732;SDS011;7457;50.960;6.830;2023-04-15T08:22:07;8.23;;;6.15;;
14732;SDS011;7457;50.960;6.830;2023-04-15T08:24:32;7.18;;;5.80;;
14732;SDS011;7457;50.960;6.830;2023-04-15T08:26:58;6.15;;;5.53;;
14732;SDS011;7457;50.960;6.830;2023-04-15T08:29:28;7.32;;;5.80;;
14732;SDS011;7457;50.960;6.830;2023-04-15T08:31:53;9.93;;;6.43;;
14732;SDS011;7457;50.960;6.830;2023-04-15T08:34:19;6.40;;;5.78;;
14732;SDS011;7457;50.960;6.830;2023-04-15T08:36:45;6.43;;;4.75;;
14732;SDS011;7457;50.960;6.830;2023-04-15T08:39:10;5.50;;;4.15;;
14732;SDS011;7457;50.960;6.830;2023-04-15T08:41:40;4.30;;;3.50;;
14732;SDS011;7457;50.960;6.830;2023-04-15T08:44:16;3.80;;;3.15;;
14732;SDS011;7457;50.960;6.830;2023-04-15T08:46:42;4.25;;;2.92;;
14732;SDS011;7457;50.960;6.830;2023-04-15T08:49:11;4.13;;;2.95;;
14732;SDS011;7457;50.960;6.830;2023-04-15T08:51:37;3.42;;;2.60;;
14732;SDS011;7457;50.960;6.830;2023-04-15T08:54:04;5.40;;;3.17;;
14732;SDS011;7457;50.960;6.830;2023-04-15T08:56:31;4.32;;;3.47;;
14732;SDS011;7457;50.960;6.830;2023-04-15T08:58:57;4.50;;;3.20;;
14732;SDS011;7457;50.960;6.830;2023-04-15T09:01:24;3.53;;;3.13;;
14732;SDS011;7457;50.960;6.830;2023-04-15T09:03:51;4.05;;;2.75;;
14732;SDS011;7457;50.960;6.830;2023-04-15T09:06:19;3.35;;;2.80;;
14732;SDS011;7457;50.960;6.830;2023-04-15T09:08:45;2.63;;;2.40;;
14732;SDS011;7457;50.960;6.830;2023-04-15T09:11:11;2.55;;;1.90;;
14732;SDS011;7457;50.960;6.830;2023-04-15T09:13:37;3.58;;;2.60;;
14732;SDS011;7457;50.960;6.830;2023-04-15T09:16:04;4.07;;;2.13;;
14732;SDS011;7457;50.960;6.830;2023-04-15T09:18:34;2.35;;;2.15;;
14732;SDS011;7457;50.960;6.830;2023-04-15T09:21:03;3.22;;;1.70;;
14732;SDS011;7457;50.960;6.830;2023-04-15T09:23:35;4.10;;;2.30;;
14732;SDS011;7457;50.960;6.830;2023-04-15T09:26:02;2.28;;;2.08;;
14732;SDS011;7457;50.960;6.830;2023-04-15T09:28:29;3.38;;;2.58;;
14732;SDS011;7457;50.960;6.830;2023-04-15T09:30:58;2.95;;;2.65;;
14732;SDS011;7457;50.960;6.830;2023-04-15T09:33:25;4.90;;;3.03;;
14732;SDS011;7457;50.960;6.830;2023-04-15T09:36:02;3.63;;;2.75;;
14732;SDS011;7457;50.960;6.830;2023-04-15T09:38:29;3.15;;;2.78;;
14732;SDS011;7457;50.960;6.830;2023-04-15T09:40:55;3.35;;;3.00;;
14732;SDS011;7457;50.960;6.830;2023-04-15T09:43:22;4.05;;;2.72;;
14732;SDS011;7457;50.960;6.830;2023-04-15T09:46:01;4.03;;;3.47;;
14732;SDS011;7457;50.960;6.830;2023-04-15T09:48:27;4.82;;;3.17;;
14732;SDS011;7457;50.960;6.830;2023-04-15T09:50:58;4.90;;;3.83;;
14732;SDS011;7457;50.960;6.830;2023-04-15T09:53:24;3.58;;;3.05;;
14732;SDS011;7457;50.960;6.830;2023-04-15T09:55:51;3.25;;;2.95;;
14732;SDS011;7457;50.960;6.830;2023-04-15T09:58:28;3.92;;;2.90;;
14732;SDS011;7457;50.960;6.830;2023-04-15T10:00:56;3.53;;;2.75;;
14732;SDS011;7457;50.960;6.830;2023-04-15T10:03:27;4.47;;;3.22;;
14732;SDS011;7457;50.960;6.830;2023-04-15T10:05:55;5.55;;;4.50;;
14732;SDS011;7457;50.960;6.830;2023-04-15T10:08:23;3.90;;;3.50;;
14732;SDS011;7457;50.960;6.830;2023-04-15T10:10:51;6.65;;;4.60;;
14732;SDS011;7457;50.960;6.830;2023-04-15T10:13:18;6.85;;;4.32;;
14732;SDS011;7457;50.960;6.830;2023-04-15T10:18:25;4.75;;;3.85;;
14732;SDS011;7457;50.960;6.830;2023-04-15T10:20:52;5.03;;;4.53;;
14732;SDS011;7457;50.960;6.830;2023-04-15T10:23:19;3.90;;;3.55;;
14732;SDS011;7457;50.960;6.830;2023-04-15T10:25:47;4.10;;;3.67;;
14732;SDS011;7457;50.960;6.830;2023-04-15T10:28:15;4.80;;;4.30;;
14732;SDS011;7457;50.960;6.830;2023-04-15T10:30:41;5.55;;;3.65;;
14732;SDS011;7457;50.960;6.830;2023-04-15T10:33:08;4.22;;;3.83;;
14732;SDS011;7457;50.960;6.830;2023-04-15T10:35:35;4.50;;;4.10;;
14732;SDS011;7457;50.960;6.830;2023-04-15T10:38:01;4.88;;;4.40;;
14732;SDS011;7457;50.960;6.830;2023-04-15T10:40:30;5.05;;;4.55;;
14732;SDS011;7457;50.960;6.830;2023-04-15T10:43:00;6.00;;;4.82;;
14732;SDS011;7457;50.960;6.830;2023-04-15T10:45:28;4.80;;;4.28;;
14732;SDS011;7457;50.960;6.830;2023-04-15T10:48:01;4.40;;;4.00;;
14732;SDS011;7457;50.960;6.830;2023-04-15T10:50:29;3.83;;;3.08;;
14732;SDS011;7457;50.960;6.830;2023-04-15T10:52:56;2.83;;;2.63;;
14732;SDS011;7457;50.960;6.830;2023-04-15T10:55:23;5.00;;;3.17;;
14732;SDS011;7457;50.960;6.830;2023-04-15T10:57:57;5.43;;;2.80;;
14732;SDS011;7457;50.960;6.830;2023-04-15T11:00:25;3.30;;;3.00;;
14732;SDS011;7457;50.960;6.830;2023-04-15T11:03:06;3.17;;;2.88;;
14732;SDS011;7457;50.960;6.830;2023-04-15T11:08:07;3.22;;;2.97;;
14732;SDS011;7457;50.960;6.830;2023-04-15T11:12:59;3.60;;;3.30;;
14732;SDS011;7457;50.960;6.830;2023-04-15T11:20:34;5.50;;;3.38;;
14732;SDS011;7457;50.960;6.830;2023-04-15T11:23:00;3.58;;;3.30;;
14732;SDS011;7457;50.960;6.830;2023-04-15T11:25:27;3.60;;;3.30;;
14732;SDS011;7457;50.960;6.830;2023-04-15T11:27:54;3.92;;;3.58;;
14732;SDS011;7457;50.960;6.830;2023-04-15T11:30:21;4.10;;;3.80;;
14732;SDS011;7457;50.960;6.830;2023-04-15T11:32:49;4.45;;;4.13;;
14732;SDS011;7457;50.960;6.830;2023-04-15T11:35:16;4.75;;;4.35;;
14732;SDS011;7457;50.960;6.830;2023-04-15T11:37:46;4.68;;;4.28;;
14732;SDS011;7457;50.960;6.830;2023-04-15T11:40:14;5.38;;;4.72;;
14732;SDS011;7457;50.960;6.830;2023-04-15T11:42:42;5.25;;;4.75;;
14732;SDS011;7457;50.960;6.830;2023-04-15T11:45:12;5.47;;;4.85;;
14732;SDS011;7457;50.960;6.830;2023-04-15T11:47:40;6.45;;;5.40;;
14732;SDS011;7457;50.960;6.830;2023-04-15T11:50:19;5.47;;;4.97;;
14732;SDS011;7457;50.960;6.830;2023-04-15T11:52:57;4.90;;;4.50;;
14732;SDS011;7457;50.960;6.830;2023-04-15T11:55:24;4.40;;;4.10;;
14732;SDS011;7457;50.960;6.830;2023-04-15T11:58:04;4.20;;;3.90;;
14732;SDS011;7457;50.960;6.830;2023-04-15T12:00:41;5.25;;;4.07;;
14732;SDS011;7457;50.960;6.830;2023-04-15T12:03:20;4.28;;;3.88;;
14732;SDS011;7457;50.960;6.830;2023-04-15T12:11:15;4.20;;;3.80;;
14732;SDS011;7457;50.960;6.830;2023-04-15T12:13:45;4.65;;;3.60;;
14732;SDS011;7457;50.960;6.830;2023-04-15T12:16:11;4.30;;;3.90;;
14732;SDS011;7457;50.960;6.830;2023-04-15T12:18:37;4.38;;;3.97;;
14732;SDS011;7457;50.960;6.830;2023-04-15T12:21:12;5.13;;;3.67;;
14732;SDS011;7457;50.960;6.830;2023-04-15T12:23:53;4.50;;;3.80;;
14732;SDS011;7457;50.960;6.830;2023-04-15T12:26:28;4.85;;;4.28;;
14732;SDS011;7457;50.960;6.830;2023-04-15T12:28:59;4.72;;;4.32;;
14732;SDS011;7457;50.960;6.830;2023-04-15T12:31:26;5.32;;;4.82;;
14732;SDS011;7457;50.960;6.830;2023-04-15T12:33:53;9.45;;;6.50;;
14732;SDS011;7457;50.960;6.830;2023-04-15T12:36:20;11.35;;;9.13;;
14732;SDS011;7457;50.960;6.830;2023-04-15T12:38:46;8.15;;;7.35;;
14732;SDS011;7457;50.960;6.830;2023-04-15T12:41:11;6.72;;;6.10;;
14732;SDS011;7457;50.960;6.830;2023-04-15T12:43:37;7.32;;;6.57;;
14732;SDS011;7457;50.960;6.830;2023-04-15T12:46:03;9.05;;;7.20;;
14732;SDS011;7457;50.960;6.830;2023-04-15T12:48:29;7.22;;;6.03;;
14732;SDS011;7457;50.960;6.830;2023-04-15T12:50:55;6.18;;;4.78;;
14732;SDS011;7457;50.960;6.830;2023-04-15T12:53:20;4.47;;;4.07;;
14732;SDS011;7457;50.960;6.830;2023-04-15T12:55:46;3.65;;;3.22;;
14732;SDS011;7457;50.960;6.830;2023-04-15T12:58:12;5.18;;;4.68;;
14732;SDS011;7457;50.960;6.830;2023-04-15T13:00:38;6.00;;;5.40;;
14732;SDS011;7457;50.960;6.830;2023-04-15T13:03:03;8.60;;;7.70;;
14732;SDS011;7457;50.960;6.830;2023-04-15T13:05:29;10.43;;;9.30;;
14732;SDS011;7457;50.960;6.830;2023-04-15T13:07:55;10.52;;;9.48;;
14732;SDS011;7457;50.960;6.830;2023-04-15T13:10:21;13.18;;;11.55;;
14732;SDS011;7457;50.960;6.830;2023-04-15T13:12:49;14.30;;;12.80;;
14732;SDS011;7457;50.960;6.830;2023-04-15T13:15:18;15.48;;;12.60;;
14732;SDS011;7457;50.960;6.830;2023-04-15T13:17:46;13.30;;;11.68;;
14732;SDS011;7457;50.960;6.830;2023-04-15T13:20:12;13.43;;;12.15;;
14732;SDS011;7457;50.960;6.830;2023-04-15T13:22:38;13.52;;;12.23;;
14732;SDS011;7457;50.960;6.830;2023-04-15T13:25:04;16.75;;;13.55;;
14732;SDS011;7457;50.960;6.830;2023-04-15T13:27:30;12.18;;;11.07;;
14732;SDS011;7457;50.960;6.830;2023-04-15T13:29:56;12.35;;;11.25;;
14732;SDS011;7457;50.960;6.830;2023-04-15T13:32:21;10.90;;;9.88;;
14732;SDS011;7457;50.960;6.830;2023-04-15T13:34:47;9.23;;;8.40;;
14732;SDS011;7457;50.960;6.830;2023-04-15T13:37:12;10.57;;;9.57;;
14732;SDS011;7457;50.960;6.830;2023-04-15T13:39:38;13.18;;;11.77;;
14732;SDS011;7457;50.960;6.830;2023-04-15T13:42:04;11.85;;;10.73;;
14732;SDS011;7457;50.960;6.830;2023-04-15T13:44:30;12.50;;;11.27;;
14732;SDS011;7457;50.960;6.830;2023-04-15T13:46:55;12.32;;;10.25;;
14732;SDS011;7457;50.960;6.830;2023-04-15T13:49:21;11.52;;;10.32;;
14732;SDS011;7457;50.960;6.830;2023-04-15T13:51:46;9.45;;;8.55;;
14732;SDS011;7457;50.960;6.830;2023-04-15T13:54:12;9.93;;;8.93;;
14732;SDS011;7457;50.960;6.830;2023-04-15T13:56:38;9.73;;;8.38;;
14732;SDS011;7457;50.960;6.830;2023-04-15T13:59:03;11.27;;;9.25;;
14732;SDS011;7457;50.960;6.830;2023-04-15T14:01:30;11.00;;;9.85;;
14732;SDS011;7457;50.960;6.830;2023-04-15T14:03:56;12.52;;;10.23;;
14732;SDS011;7457;50.960;6.830;2023-04-15T14:06:21;10.68;;;9.57;;
14732;SDS011;7457;50.960;6.830;2023-04-15T14:08:47;11.07;;;9.57;;
14732;SDS011;7457;50.960;6.830;2023-04-15T14:11:13;11.18;;;8.98;;
14732;SDS011;7457;50.960;6.830;2023-04-15T14:13:39;9.88;;;8.77;;
14732;SDS011;7457;50.960;6.830;2023-04-15T14:16:05;15.05;;;11.23;;
14732;SDS011;7457;50.960;6.830;2023-04-15T14:18:30;16.05;;;13.73;;
14732;SDS011;7457;50.960;6.830;2023-04-15T14:20:57;15.60;;;14.00;;
14732;SDS011;7457;50.960;6.830;2023-04-15T14:23:22;11.80;;;10.60;;
14732;SDS011;7457;50.960;6.830;2023-04-15T14:25:49;9.30;;;8.40;;
14732;SDS011;7457;50.960;6.830;2023-04-15T14:28:15;7.72;;;7.03;;
14732;SDS011;7457;50.960;6.830;2023-04-15T14:30:41;7.75;;;6.95;;
14732;SDS011;7457;50.960;6.830;2023-04-15T14:33:06;8.10;;;6.78;;
14732;SDS011;7457;50.960;6.830;2023-04-15T14:35:32;8.27;;;6.15;;
14732;SDS011;7457;50.960;6.830;2023-04-15T14:37:58;8.55;;;7.68;;
14732;SDS011;7457;50.960;6.830;2023-04-15T14:40:23;7.35;;;6.15;;
14732;SDS011;7457;50.960;6.830;2023-04-15T14:42:49;10.40;;;5.97;;
14732;SDS011;7457;50.960;6.830;2023-04-15T14:45:15;7.15;;;5.25;;
14732;SDS011;7457;50.960;6.830;2023-04-15T14:47:41;7.80;;;6.82;;
14732;SDS011;7457;50.960;6.830;2023-04-15T14:50:07;6.00;;;5.15;;
14732;SDS011;7457;50.960;6.830;2023-04-15T14:52:33;5.80;;;5.20;;
14732;SDS011;7457;50.960;6.830;2023-04-15T14:55:04;5.97;;;5.30;;
14732;SDS011;7457;50.960;6.830;2023-04-15T14:57:31;5.65;;;5.07;;
14732;SDS011;7457;50.960;6.830;2023-04-15T14:59:56;5.13;;;4.63;;
14732;SDS011;7457;50.960;6.830;2023-04-15T15:02:23;6.13;;;4.30;;
14732;SDS011;7457;50.960;6.830;2023-04-15T15:04:49;4.38;;;3.97;;
14732;SDS011;7457;50.960;6.830;2023-04-15T15:07:15;4.43;;;3.72;;
14732;SDS011;7457;50.960;6.830;2023-04-15T15:09:40;4.53;;;4.10;;
14732;SDS011;7457;50.960;6.830;2023-04-15T15:12:06;6.53;;;4.78;;
14732;SDS011;7457;50.960;6.830;2023-04-15T15:14:32;6.35;;;4.53;;